Rejestracja

Wszystkie dane podawane są w czasie UTC za wyjątkiem miejsc gdzie jest jednoznacznie podane, że jest inaczej. Dane podawane w serwisie mają charakter informacyjny!!!
Informacje w sprawie dostępu do serwisu pod numerem tel. +48 261-828-138
Informacja dla żołnierzy i pracowników wojska: Prosimy o niezwłoczną zmianę adresu e-mail w profilu użytkownika na pocztę w domenie @ron.mil.pl

Aktualna Pogoda
 
Pogoda w Polsce
3°C Szczecin 1°C Suwałki 1°C Warszawa 2°C Poznan
0°C Opole 1°C Kraków 1°C Rzeszów
Więcej miast w Polsce

Pogoda w Europie
0°C Berlin 1°C Paryz 2°C Bruksela 6°C Oslo
-2°C Praga 2°C Zagrzeb
Więcej miast w Europie

Metary wojskowe test
METAR EPCE 210030Z 26018G28KT 9999 OVC010 04/01 Q1035 RMK 036 085 8/8=
METAR EPDA 210030Z 23011KT 210V270 9999 OVC013 04/02 Q1037 RMK 041 088 8/8=
METAR EPDE 210030Z AUTO 25008KT 9999 M00/M02 Q1041 RMK M002 085 ///=
METAR EPIR 210000Z 25010KT 9999 NSC 00/M02 Q1040 RMK 003 087 3/3=
METAR EPKS 210030Z 26010KT 5000 BR OVC004 01/01 Q1042 RMK 011 100 8/8=
METAR EPLK 210030Z 22006KT 9999 NSC M01/M02 Q1042 RMK M013 092 0/0=
METAR EPLY 210000Z 24008KT 9999 NSC 00/M01 Q1041 RMK 001 090 5/5=
METAR EPMB 202300Z 27013KT 9999 FEW020 BKN070 02/M00 Q1037 RMK 022 083 5/2=
METAR EPMI 210000Z 24010KT 9999 BKN006 02/00 Q1040 RMK 015 092 7/7=
METAR EPMM 210030Z 26011KT 9999 BKN070 00/M02 Q1039 RMK 000 086 6/6=
METAR EPOK 210030Z 28019G30KT 250V310 9999 OVC013 05/02 Q1033 RMK 049 083 8/8=
METAR EPPR 210030Z AUTO 25012KT VV018 05/01 Q1036 RMK 046 075 ///=
METAR EPPW 210030Z 27014KT 1500 BR OVC003 M00/M00 Q1041 RMK M003 100 8/8=
METAR EPSN 210030Z 24010KT 9999 BKN008 BKN011 02/02 Q1039 RMK 016 100 7/5=
METAR EPTM 210030Z AUTO 22006KT M01/M02 Q1042 RMK M006 087 ///=


 

Prawa autorskie©2007 SSH SZ RP. Wszelkie prawa zastrzeżone.